sensor_id;sensor_type;location;lat;lon;timestamp;P1;durP1;ratioP1;P2;durP2;ratioP2
56593;SDS011;42474;51.660;5.824;2023-02-28T00:03:28;9.4;;;6.1;;
56593;SDS011;42474;51.660;5.824;2023-02-28T00:08:28;9.5;;;5.9;;
56593;SDS011;42474;51.660;5.824;2023-02-28T00:13:28;8.6;;;5.9;;
56593;SDS011;42474;51.660;5.824;2023-02-28T00:18:28;8.9;;;6.0;;
56593;SDS011;42474;51.660;5.824;2023-02-28T00:23:28;10.3;;;5.8;;
56593;SDS011;42474;51.660;5.824;2023-02-28T00:28:28;9.7;;;5.9;;
56593;SDS011;42474;51.660;5.824;2023-02-28T00:33:28;8.3;;;5.8;;
56593;SDS011;42474;51.660;5.824;2023-02-28T00:38:28;9.4;;;5.8;;
56593;SDS011;42474;51.660;5.824;2023-02-28T00:43:28;8.5;;;5.4;;
56593;SDS011;42474;51.660;5.824;2023-02-28T00:48:28;7.8;;;5.5;;
56593;SDS011;42474;51.660;5.824;2023-02-28T00:53:28;7.9;;;5.4;;
56593;SDS011;42474;51.660;5.824;2023-02-28T00:58:28;8.3;;;5.7;;
56593;SDS011;42474;51.660;5.824;2023-02-28T01:03:28;8.9;;;5.8;;
56593;SDS011;42474;51.660;5.824;2023-02-28T01:08:28;8.3;;;5.5;;
56593;SDS011;42474;51.660;5.824;2023-02-28T01:13:28;13.4;;;6.0;;
56593;SDS011;42474;51.660;5.824;2023-02-28T01:18:28;9.0;;;5.7;;
56593;SDS011;42474;51.660;5.824;2023-02-28T01:23:28;9.0;;;5.5;;
56593;SDS011;42474;51.660;5.824;2023-02-28T01:28:28;8.3;;;5.6;;
56593;SDS011;42474;51.660;5.824;2023-02-28T01:33:28;7.5;;;5.9;;
56593;SDS011;42474;51.660;5.824;2023-02-28T01:38:28;8.5;;;6.2;;
56593;SDS011;42474;51.660;5.824;2023-02-28T01:43:31;8.9;;;6.0;;
56593;SDS011;42474;51.660;5.824;2023-02-28T01:48:34;9.8;;;5.8;;
56593;SDS011;42474;51.660;5.824;2023-02-28T01:53:36;10.0;;;6.2;;
56593;SDS011;42474;51.660;5.824;2023-02-28T01:58:28;10.1;;;6.0;;
56593;SDS011;42474;51.660;5.824;2023-02-28T02:03:28;8.9;;;5.6;;
56593;SDS011;42474;51.660;5.824;2023-02-28T02:08:29;7.9;;;5.8;;
56593;SDS011;42474;51.660;5.824;2023-02-28T02:14:16;9.6;;;6.2;;
56593;SDS011;42474;51.660;5.824;2023-02-28T02:25:50;9.1;;;6.1;;
56593;SDS011;42474;51.660;5.824;2023-02-28T02:33:34;7.7;;;5.4;;
56593;SDS011;42474;51.660;5.824;2023-02-28T02:38:01;8.5;;;5.1;;
56593;SDS011;42474;51.660;5.824;2023-02-28T02:42:40;6.0;;;4.5;;
56593;SDS011;42474;51.660;5.824;2023-02-28T02:46:14;7.4;;;5.0;;
56593;SDS011;42474;51.660;5.824;2023-02-28T02:48:32;12.4;;;5.8;;
56593;SDS011;42474;51.660;5.824;2023-02-28T02:53:41;8.5;;;5.6;;
56593;SDS011;42474;51.660;5.824;2023-02-28T02:58:32;8.7;;;5.0;;
56593;SDS011;42474;51.660;5.824;2023-02-28T03:03:32;8.1;;;4.9;;
56593;SDS011;42474;51.660;5.824;2023-02-28T03:08:33;7.9;;;5.3;;
56593;SDS011;42474;51.660;5.824;2023-02-28T03:14:08;7.9;;;5.2;;
56593;SDS011;42474;51.660;5.824;2023-02-28T03:20:04;8.2;;;4.7;;
56593;SDS011;42474;51.660;5.824;2023-02-28T03:24:57;10.0;;;4.9;;
56593;SDS011;42474;51.660;5.824;2023-02-28T03:28:29;7.3;;;4.8;;
56593;SDS011;42474;51.660;5.824;2023-02-28T03:33:29;8.2;;;5.2;;
56593;SDS011;42474;51.660;5.824;2023-02-28T03:38:38;6.1;;;4.6;;
56593;SDS011;42474;51.660;5.824;2023-02-28T03:43:38;8.1;;;5.0;;
56593;SDS011;42474;51.660;5.824;2023-02-28T03:48:35;7.0;;;5.0;;
56593;SDS011;42474;51.660;5.824;2023-02-28T03:53:36;7.4;;;5.0;;
56593;SDS011;42474;51.660;5.824;2023-02-28T03:58:41;7.5;;;4.8;;
56593;SDS011;42474;51.660;5.824;2023-02-28T04:03:28;6.4;;;4.5;;
56593;SDS011;42474;51.660;5.824;2023-02-28T04:08:28;6.6;;;4.5;;
56593;SDS011;42474;51.660;5.824;2023-02-28T04:13:28;7.6;;;4.5;;
56593;SDS011;42474;51.660;5.824;2023-02-28T04:18:28;5.3;;;4.2;;
56593;SDS011;42474;51.660;5.824;2023-02-28T04:23:28;5.5;;;3.8;;
56593;SDS011;42474;51.660;5.824;2023-02-28T04:28:28;6.4;;;3.7;;
56593;SDS011;42474;51.660;5.824;2023-02-28T04:33:28;5.2;;;3.8;;
56593;SDS011;42474;51.660;5.824;2023-02-28T04:38:28;5.3;;;3.6;;
56593;SDS011;42474;51.660;5.824;2023-02-28T04:43:28;5.8;;;3.6;;
56593;SDS011;42474;51.660;5.824;2023-02-28T04:48:29;7.0;;;3.5;;
56593;SDS011;42474;51.660;5.824;2023-02-28T04:53:28;4.8;;;3.3;;
56593;SDS011;42474;51.660;5.824;2023-02-28T04:58:28;6.7;;;3.7;;
56593;SDS011;42474;51.660;5.824;2023-02-28T05:03:28;7.2;;;3.5;;
56593;SDS011;42474;51.660;5.824;2023-02-28T05:08:28;5.1;;;3.5;;
56593;SDS011;42474;51.660;5.824;2023-02-28T05:13:28;5.4;;;3.8;;
56593;SDS011;42474;51.660;5.824;2023-02-28T05:18:28;6.5;;;3.8;;
56593;SDS011;42474;51.660;5.824;2023-02-28T05:23:28;6.5;;;4.0;;
56593;SDS011;42474;51.660;5.824;2023-02-28T05:28:28;6.9;;;4.1;;
56593;SDS011;42474;51.660;5.824;2023-02-28T05:33:28;5.8;;;4.1;;
56593;SDS011;42474;51.660;5.824;2023-02-28T05:38:28;6.1;;;4.7;;
56593;SDS011;42474;51.660;5.824;2023-02-28T05:43:28;7.1;;;4.2;;
56593;SDS011;42474;51.660;5.824;2023-02-28T05:48:28;4.7;;;3.9;;
56593;SDS011;42474;51.660;5.824;2023-02-28T05:53:28;5.0;;;3.8;;
56593;SDS011;42474;51.660;5.824;2023-02-28T05:58:28;7.0;;;4.5;;
56593;SDS011;42474;51.660;5.824;2023-02-28T06:03:28;5.6;;;4.0;;
56593;SDS011;42474;51.660;5.824;2023-02-28T06:08:28;6.5;;;4.6;;
56593;SDS011;42474;51.660;5.824;2023-02-28T06:13:28;8.7;;;4.0;;
56593;SDS011;42474;51.660;5.824;2023-02-28T06:18:28;9.7;;;4.5;;
56593;SDS011;42474;51.660;5.824;2023-02-28T06:23:28;6.2;;;4.5;;
56593;SDS011;42474;51.660;5.824;2023-02-28T06:28:28;7.7;;;4.4;;
56593;SDS011;42474;51.660;5.824;2023-02-28T06:33:28;7.1;;;4.4;;
56593;SDS011;42474;51.660;5.824;2023-02-28T06:38:28;6.0;;;4.4;;
56593;SDS011;42474;51.660;5.824;2023-02-28T06:43:29;6.4;;;4.3;;
56593;SDS011;42474;51.660;5.824;2023-02-28T06:48:28;8.2;;;4.5;;
56593;SDS011;42474;51.660;5.824;2023-02-28T06:53:28;6.0;;;4.3;;
56593;SDS011;42474;51.660;5.824;2023-02-28T06:58:28;7.9;;;4.7;;
56593;SDS011;42474;51.660;5.824;2023-02-28T07:03:28;8.1;;;4.3;;
56593;SDS011;42474;51.660;5.824;2023-02-28T07:08:28;6.3;;;4.4;;
56593;SDS011;42474;51.660;5.824;2023-02-28T07:13:28;6.2;;;4.5;;
56593;SDS011;42474;51.660;5.824;2023-02-28T07:18:28;7.1;;;4.1;;
56593;SDS011;42474;51.660;5.824;2023-02-28T07:23:28;6.4;;;3.7;;
56593;SDS011;42474;51.660;5.824;2023-02-28T07:28:28;4.3;;;2.9;;
56593;SDS011;42474;51.660;5.824;2023-02-28T07:33:28;4.4;;;3.2;;
56593;SDS011;42474;51.660;5.824;2023-02-28T07:38:28;4.9;;;3.4;;
56593;SDS011;42474;51.660;5.824;2023-02-28T07:43:28;4.9;;;3.4;;
56593;SDS011;42474;51.660;5.824;2023-02-28T07:48:28;4.9;;;3.4;;
56593;SDS011;42474;51.660;5.824;2023-02-28T07:53:28;4.0;;;3.1;;
56593;SDS011;42474;51.660;5.824;2023-02-28T07:58:28;7.2;;;3.3;;
56593;SDS011;42474;51.660;5.824;2023-02-28T08:03:28;4.7;;;3.0;;
56593;SDS011;42474;51.660;5.824;2023-02-28T08:08:28;4.7;;;2.8;;
56593;SDS011;42474;51.660;5.824;2023-02-28T08:13:28;3.8;;;2.7;;
56593;SDS011;42474;51.660;5.824;2023-02-28T08:18:28;3.8;;;2.8;;
56593;SDS011;42474;51.660;5.824;2023-02-28T08:23:28;4.0;;;2.6;;
56593;SDS011;42474;51.660;5.824;2023-02-28T08:28:28;3.7;;;2.7;;
56593;SDS011;42474;51.660;5.824;2023-02-28T08:33:28;3.0;;;2.4;;
56593;SDS011;42474;51.660;5.824;2023-02-28T08:38:28;3.5;;;2.5;;
56593;SDS011;42474;51.660;5.824;2023-02-28T08:43:29;3.4;;;2.4;;
56593;SDS011;42474;51.660;5.824;2023-02-28T08:48:29;3.2;;;2.1;;
56593;SDS011;42474;51.660;5.824;2023-02-28T08:53:28;2.7;;;2.2;;
56593;SDS011;42474;51.660;5.824;2023-02-28T08:58:28;3.9;;;2.4;;
56593;SDS011;42474;51.660;5.824;2023-02-28T09:03:28;2.7;;;2.2;;
56593;SDS011;42474;51.660;5.824;2023-02-28T09:08:29;4.1;;;2.3;;
56593;SDS011;42474;51.660;5.824;2023-02-28T09:13:28;2.9;;;2.2;;
56593;SDS011;42474;51.660;5.824;2023-02-28T09:18:28;3.9;;;2.7;;
56593;SDS011;42474;51.660;5.824;2023-02-28T09:23:28;2.8;;;2.1;;
56593;SDS011;42474;51.660;5.824;2023-02-28T09:28:28;4.2;;;2.1;;
56593;SDS011;42474;51.660;5.824;2023-02-28T09:33:28;2.3;;;2.0;;
56593;SDS011;42474;51.660;5.824;2023-02-28T09:38:28;2.5;;;1.8;;
56593;SDS011;42474;51.660;5.824;2023-02-28T09:43:29;2.8;;;1.8;;
56593;SDS011;42474;51.660;5.824;2023-02-28T09:48:29;2.0;;;1.8;;
56593;SDS011;42474;51.660;5.824;2023-02-28T09:53:34;2.1;;;1.9;;
56593;SDS011;42474;51.660;5.824;2023-02-28T09:58:30;2.2;;;2.0;;
56593;SDS011;42474;51.660;5.824;2023-02-28T10:03:55;4.7;;;1.7;;
56593;SDS011;42474;51.660;5.824;2023-02-28T10:08:39;2.1;;;1.6;;
56593;SDS011;42474;51.660;5.824;2023-02-28T10:13:33;2.4;;;1.5;;
56593;SDS011;42474;51.660;5.824;2023-02-28T10:18:41;2.2;;;1.6;;
56593;SDS011;42474;51.660;5.824;2023-02-28T10:23:35;2.3;;;1.5;;
56593;SDS011;42474;51.660;5.824;2023-02-28T10:28:29;4.8;;;1.7;;
56593;SDS011;42474;51.660;5.824;2023-02-28T10:33:32;2.3;;;1.7;;
56593;SDS011;42474;51.660;5.824;2023-02-28T10:38:31;2.5;;;1.7;;
56593;SDS011;42474;51.660;5.824;2023-02-28T10:43:28;1.9;;;1.6;;
56593;SDS011;42474;51.660;5.824;2023-02-28T10:48:34;1.9;;;1.5;;
56593;SDS011;42474;51.660;5.824;2023-02-28T10:53:36;1.8;;;1.6;;
56593;SDS011;42474;51.660;5.824;2023-02-28T10:58:29;1.9;;;1.7;;
56593;SDS011;42474;51.660;5.824;2023-02-28T11:03:33;2.7;;;1.7;;
56593;SDS011;42474;51.660;5.824;2023-02-28T11:08:28;2.0;;;1.7;;
56593;SDS011;42474;51.660;5.824;2023-02-28T11:13:34;2.1;;;1.6;;
56593;SDS011;42474;51.660;5.824;2023-02-28T11:18:40;2.1;;;1.6;;
56593;SDS011;42474;51.660;5.824;2023-02-28T11:23:33;2.4;;;1.7;;
56593;SDS011;42474;51.660;5.824;2023-02-28T11:28:41;2.4;;;1.8;;
56593;SDS011;42474;51.660;5.824;2023-02-28T11:33:28;2.7;;;1.9;;
56593;SDS011;42474;51.660;5.824;2023-02-28T11:38:28;1.8;;;1.6;;
56593;SDS011;42474;51.660;5.824;2023-02-28T11:44:23;2.7;;;1.9;;
56593;SDS011;42474;51.660;5.824;2023-02-28T11:49:05;2.2;;;2.1;;
56593;SDS011;42474;51.660;5.824;2023-02-28T11:54:28;2.5;;;1.9;;
56593;SDS011;42474;51.660;5.824;2023-02-28T11:59:14;2.4;;;1.8;;
56593;SDS011;42474;51.660;5.824;2023-02-28T12:04:36;2.6;;;1.8;;
56593;SDS011;42474;51.660;5.824;2023-02-28T12:09:29;2.2;;;1.8;;
56593;SDS011;42474;51.660;5.824;2023-02-28T12:14:06;3.1;;;1.9;;
56593;SDS011;42474;51.660;5.824;2023-02-28T12:19:37;3.1;;;1.7;;
56593;SDS011;42474;51.660;5.824;2023-02-28T12:25:32;2.4;;;1.8;;
56593;SDS011;42474;51.660;5.824;2023-02-28T12:28:34;2.1;;;1.9;;
56593;SDS011;42474;51.660;5.824;2023-02-28T12:33:31;3.8;;;1.9;;
56593;SDS011;42474;51.660;5.824;2023-02-28T12:38:29;2.3;;;2.1;;
56593;SDS011;42474;51.660;5.824;2023-02-28T12:43:31;2.0;;;1.8;;
56593;SDS011;42474;51.660;5.824;2023-02-28T12:48:31;2.5;;;1.9;;
56593;SDS011;42474;51.660;5.824;2023-02-28T12:53:31;3.2;;;2.1;;
56593;SDS011;42474;51.660;5.824;2023-02-28T12:58:51;2.4;;;1.9;;
56593;SDS011;42474;51.660;5.824;2023-02-28T13:05:10;2.7;;;2.1;;
56593;SDS011;42474;51.660;5.824;2023-02-28T13:09:22;2.2;;;1.9;;
56593;SDS011;42474;51.660;5.824;2023-02-28T13:13:29;2.5;;;1.9;;
56593;SDS011;42474;51.660;5.824;2023-02-28T13:18:36;2.6;;;2.0;;
56593;SDS011;42474;51.660;5.824;2023-02-28T13:23:57;2.7;;;2.1;;
56593;SDS011;42474;51.660;5.824;2023-02-28T13:29:01;3.1;;;2.0;;
56593;SDS011;42474;51.660;5.824;2023-02-28T13:33:30;3.2;;;2.2;;
56593;SDS011;42474;51.660;5.824;2023-02-28T13:38:31;2.4;;;2.0;;
56593;SDS011;42474;51.660;5.824;2023-02-28T13:44:00;2.8;;;2.0;;
56593;SDS011;42474;51.660;5.824;2023-02-28T13:48:28;3.9;;;2.3;;
56593;SDS011;42474;51.660;5.824;2023-02-28T13:54:01;3.1;;;2.3;;
56593;SDS011;42474;51.660;5.824;2023-02-28T13:59:06;3.1;;;2.0;;
56593;SDS011;42474;51.660;5.824;2023-02-28T14:04:57;2.4;;;2.1;;
56593;SDS011;42474;51.660;5.824;2023-02-28T14:08:28;2.1;;;1.8;;
56593;SDS011;42474;51.660;5.824;2023-02-28T14:13:46;4.2;;;2.0;;
56593;SDS011;42474;51.660;5.824;2023-02-28T14:18:29;2.9;;;2.2;;
56593;SDS011;42474;51.660;5.824;2023-02-28T14:24:33;3.5;;;2.2;;
56593;SDS011;42474;51.660;5.824;2023-02-28T14:30:03;4.6;;;2.3;;
56593;SDS011;42474;51.660;5.824;2023-02-28T14:34:45;3.4;;;2.4;;
56593;SDS011;42474;51.660;5.824;2023-02-28T14:38:31;3.2;;;2.4;;
56593;SDS011;42474;51.660;5.824;2023-02-28T14:43:28;3.3;;;3.0;;
56593;SDS011;42474;51.660;5.824;2023-02-28T14:48:28;3.1;;;2.6;;
56593;SDS011;42474;51.660;5.824;2023-02-28T14:53:29;2.7;;;2.1;;
56593;SDS011;42474;51.660;5.824;2023-02-28T14:58:31;2.9;;;2.3;;
56593;SDS011;42474;51.660;5.824;2023-02-28T15:03:32;3.2;;;2.3;;
56593;SDS011;42474;51.660;5.824;2023-02-28T15:08:28;3.6;;;2.2;;
56593;SDS011;42474;51.660;5.824;2023-02-28T15:13:36;4.3;;;2.3;;
56593;SDS011;42474;51.660;5.824;2023-02-28T15:18:31;3.3;;;2.3;;
56593;SDS011;42474;51.660;5.824;2023-02-28T15:23:28;4.0;;;2.5;;
56593;SDS011;42474;51.660;5.824;2023-02-28T15:28:28;3.4;;;2.5;;
56593;SDS011;42474;51.660;5.824;2023-02-28T15:33:29;4.1;;;3.0;;
56593;SDS011;42474;51.660;5.824;2023-02-28T15:38:28;2.9;;;2.6;;
56593;SDS011;42474;51.660;5.824;2023-02-28T15:43:29;3.0;;;2.4;;
56593;SDS011;42474;51.660;5.824;2023-02-28T15:48:29;2.9;;;2.3;;
56593;SDS011;42474;51.660;5.824;2023-02-28T15:53:32;5.0;;;2.6;;
56593;SDS011;42474;51.660;5.824;2023-02-28T15:58:28;3.1;;;2.5;;
56593;SDS011;42474;51.660;5.824;2023-02-28T16:03:34;4.4;;;2.8;;
56593;SDS011;42474;51.660;5.824;2023-02-28T16:08:28;3.6;;;2.7;;
56593;SDS011;42474;51.660;5.824;2023-02-28T16:13:28;3.3;;;2.8;;
56593;SDS011;42474;51.660;5.824;2023-02-28T16:18:28;3.5;;;2.6;;
56593;SDS011;42474;51.660;5.824;2023-02-28T16:23:28;3.7;;;2.8;;
56593;SDS011;42474;51.660;5.824;2023-02-28T16:28:29;3.4;;;2.7;;
56593;SDS011;42474;51.660;5.824;2023-02-28T16:33:28;2.9;;;2.4;;
56593;SDS011;42474;51.660;5.824;2023-02-28T16:38:28;3.5;;;2.5;;
56593;SDS011;42474;51.660;5.824;2023-02-28T16:43:28;4.4;;;2.7;;
56593;SDS011;42474;51.660;5.824;2023-02-28T16:48:28;3.2;;;2.7;;
56593;SDS011;42474;51.660;5.824;2023-02-28T16:53:28;3.8;;;2.9;;
56593;SDS011;42474;51.660;5.824;2023-02-28T16:58:28;3.4;;;2.5;;
56593;SDS011;42474;51.660;5.824;2023-02-28T17:03:28;3.5;;;2.3;;
56593;SDS011;42474;51.660;5.824;2023-02-28T17:08:28;3.2;;;2.7;;
56593;SDS011;42474;51.660;5.824;2023-02-28T17:13:28;3.8;;;2.5;;
56593;SDS011;42474;51.660;5.824;2023-02-28T17:18:28;3.6;;;2.6;;
56593;SDS011;42474;51.660;5.824;2023-02-28T17:23:28;3.5;;;2.8;;
56593;SDS011;42474;51.660;5.824;2023-02-28T17:28:28;4.1;;;3.0;;
56593;SDS011;42474;51.660;5.824;2023-02-28T17:33:28;3.3;;;2.9;;
56593;SDS011;42474;51.660;5.824;2023-02-28T17:38:28;4.6;;;3.0;;
56593;SDS011;42474;51.660;5.824;2023-02-28T17:43:28;3.7;;;2.7;;
56593;SDS011;42474;51.660;5.824;2023-02-28T17:48:28;5.2;;;3.2;;
56593;SDS011;42474;51.660;5.824;2023-02-28T17:53:28;3.5;;;2.7;;
56593;SDS011;42474;51.660;5.824;2023-02-28T17:58:28;4.3;;;2.9;;
56593;SDS011;42474;51.660;5.824;2023-02-28T18:03:28;5.1;;;3.2;;
56593;SDS011;42474;51.660;5.824;2023-02-28T18:08:28;4.2;;;2.8;;
56593;SDS011;42474;51.660;5.824;2023-02-28T18:13:28;4.5;;;3.0;;
56593;SDS011;42474;51.660;5.824;2023-02-28T18:18:28;4.8;;;3.3;;
56593;SDS011;42474;51.660;5.824;2023-02-28T18:23:28;3.8;;;3.0;;
56593;SDS011;42474;51.660;5.824;2023-02-28T18:28:28;3.8;;;3.2;;
56593;SDS011;42474;51.660;5.824;2023-02-28T18:33:28;4.9;;;2.9;;
56593;SDS011;42474;51.660;5.824;2023-02-28T18:38:28;4.9;;;3.4;;
56593;SDS011;42474;51.660;5.824;2023-02-28T18:43:29;4.5;;;3.6;;
56593;SDS011;42474;51.660;5.824;2023-02-28T18:48:28;5.1;;;3.6;;
56593;SDS011;42474;51.660;5.824;2023-02-28T18:53:28;7.1;;;4.2;;
56593;SDS011;42474;51.660;5.824;2023-02-28T18:58:28;4.5;;;3.7;;
56593;SDS011;42474;51.660;5.824;2023-02-28T19:03:28;7.1;;;4.1;;
56593;SDS011;42474;51.660;5.824;2023-02-28T19:08:28;6.3;;;3.9;;
56593;SDS011;42474;51.660;5.824;2023-02-28T19:13:28;6.5;;;4.2;;
56593;SDS011;42474;51.660;5.824;2023-02-28T19:18:28;6.3;;;3.8;;
56593;SDS011;42474;51.660;5.824;2023-02-28T19:23:30;5.8;;;4.6;;
56593;SDS011;42474;51.660;5.824;2023-02-28T19:28:28;6.2;;;4.4;;
56593;SDS011;42474;51.660;5.824;2023-02-28T19:33:28;5.7;;;4.1;;
56593;SDS011;42474;51.660;5.824;2023-02-28T19:38:28;5.9;;;4.1;;
56593;SDS011;42474;51.660;5.824;2023-02-28T19:43:28;8.2;;;5.3;;
56593;SDS011;42474;51.660;5.824;2023-02-28T19:48:28;7.2;;;5.0;;
56593;SDS011;42474;51.660;5.824;2023-02-28T19:53:29;7.0;;;5.2;;
56593;SDS011;42474;51.660;5.824;2023-02-28T19:58:28;8.6;;;5.3;;
56593;SDS011;42474;51.660;5.824;2023-02-28T20:08:28;10.2;;;5.5;;
56593;SDS011;42474;51.660;5.824;2023-02-28T20:13:28;8.7;;;5.5;;
56593;SDS011;42474;51.660;5.824;2023-02-28T20:18:28;9.3;;;5.3;;
56593;SDS011;42474;51.660;5.824;2023-02-28T20:23:28;7.1;;;5.3;;
56593;SDS011;42474;51.660;5.824;2023-02-28T20:28:28;10.0;;;5.0;;
56593;SDS011;42474;51.660;5.824;2023-02-28T20:33:28;7.1;;;5.0;;
56593;SDS011;42474;51.660;5.824;2023-02-28T20:38:28;9.1;;;5.3;;
56593;SDS011;42474;51.660;5.824;2023-02-28T20:43:29;6.9;;;4.9;;
56593;SDS011;42474;51.660;5.824;2023-02-28T20:48:28;9.4;;;4.9;;
56593;SDS011;42474;51.660;5.824;2023-02-28T20:53:28;11.1;;;5.3;;
56593;SDS011;42474;51.660;5.824;2023-02-28T20:58:29;7.9;;;5.5;;
56593;SDS011;42474;51.660;5.824;2023-02-28T21:03:28;8.8;;;5.3;;
56593;SDS011;42474;51.660;5.824;2023-02-28T21:08:28;9.1;;;5.5;;
56593;SDS011;42474;51.660;5.824;2023-02-28T21:13:28;7.2;;;5.2;;
56593;SDS011;42474;51.660;5.824;2023-02-28T21:18:28;7.8;;;5.5;;
56593;SDS011;42474;51.660;5.824;2023-02-28T21:23:28;7.7;;;5.5;;
56593;SDS011;42474;51.660;5.824;2023-02-28T21:28:28;7.6;;;5.6;;
56593;SDS011;42474;51.660;5.824;2023-02-28T21:33:28;8.4;;;5.7;;
56593;SDS011;42474;51.660;5.824;2023-02-28T21:38:28;8.1;;;5.5;;
56593;SDS011;42474;51.660;5.824;2023-02-28T21:43:28;8.8;;;5.8;;
56593;SDS011;42474;51.660;5.824;2023-02-28T21:48:28;12.2;;;5.6;;
56593;SDS011;42474;51.660;5.824;2023-02-28T21:53:30;8.4;;;6.2;;
56593;SDS011;42474;51.660;5.824;2023-02-28T21:58:28;8.2;;;5.5;;
56593;SDS011;42474;51.660;5.824;2023-02-28T22:03:28;8.4;;;5.8;;
56593;SDS011;42474;51.660;5.824;2023-02-28T22:08:28;8.6;;;6.0;;
56593;SDS011;42474;51.660;5.824;2023-02-28T22:13:28;9.3;;;6.3;;
56593;SDS011;42474;51.660;5.824;2023-02-28T22:18:28;9.0;;;6.0;;
56593;SDS011;42474;51.660;5.824;2023-02-28T22:23:28;9.6;;;6.6;;
56593;SDS011;42474;51.660;5.824;2023-02-28T22:28:28;9.2;;;6.4;;
56593;SDS011;42474;51.660;5.824;2023-02-28T22:33:28;9.9;;;6.8;;
56593;SDS011;42474;51.660;5.824;2023-02-28T22:38:28;10.8;;;6.6;;
56593;SDS011;42474;51.660;5.824;2023-02-28T22:43:29;8.7;;;6.1;;
56593;SDS011;42474;51.660;5.824;2023-02-28T22:48:28;8.9;;;6.4;;
56593;SDS011;42474;51.660;5.824;2023-02-28T22:53:28;10.0;;;5.9;;
56593;SDS011;42474;51.660;5.824;2023-02-28T22:58:28;9.0;;;6.1;;
56593;SDS011;42474;51.660;5.824;2023-02-28T23:03:28;9.1;;;5.7;;
56593;SDS011;42474;51.660;5.824;2023-02-28T23:08:28;12.0;;;6.0;;
56593;SDS011;42474;51.660;5.824;2023-02-28T23:13:28;8.2;;;5.4;;
56593;SDS011;42474;51.660;5.824;2023-02-28T23:18:28;8.5;;;5.6;;
56593;SDS011;42474;51.660;5.824;2023-02-28T23:23:28;7.7;;;5.1;;
56593;SDS011;42474;51.660;5.824;2023-02-28T23:28:28;10.1;;;6.5;;
56593;SDS011;42474;51.660;5.824;2023-02-28T23:33:28;10.7;;;6.9;;
56593;SDS011;42474;51.660;5.824;2023-02-28T23:38:28;10.0;;;7.0;;
56593;SDS011;42474;51.660;5.824;2023-02-28T23:43:28;9.1;;;6.6;;
56593;SDS011;42474;51.660;5.824;2023-02-28T23:48:28;9.7;;;6.7;;
56593;SDS011;42474;51.660;5.824;2023-02-28T23:53:28;10.8;;;6.4;;
56593;SDS011;42474;51.660;5.824;2023-02-28T23:58:29;9.5;;;6.8;;
